Strona główna
METAR-TAF:

METAR-TAF

Lotnisko :

Baza lotnicza

Niederstetten, Niemcy

Szerokość geograficzna: 49-24N, Długość geograficzna: 009-58E, wysokość: 468 m

Aktualna obserwacja pogody

Raport powstał 1 godzina i 9 minut temu, godzina 21:20 UTC
Wiatr 8 kt od wschodnio-północny wschód
Temperatura 10°C
Wilgotność 57%
Ciśnienie 1021 hPa
Widzialność 10 km lub więcej
Mało chmury na wysokości 11000 ft
Rozproszone chmury na wysokości 18000 ft

METAR: ETHN 302120Z 06008KT 9999 FEW110 SCT180 10/02 Q1021 BLU+

czas: 00:29 (22:29 UTC)


TAF: brakujący

Obserwacja i prognoza pogody dla ponad 4000 lotnisk (raport METAR i TAF).

Dostępne stacje oznaczono żółtymi i czerwonymi punktami na mapie.

Najedź kursorem aby zobaczyć nazwę stacji.

Kliknij aby zobaczyć obserwacje i prognozy pogody.

Aby zmienić mapę: kliknij na zielony przycisk z czarnym krzyżykiem, aby powiększyć; na zielony przycisk z myślnikiem, aby pomniejszyć; na zielone strzałki, aby przejść do map sąsiednich.


METAR-TAF: